createdAt,value
2019-03-13T00:00:10.896Z,6.90
2019-03-13T00:02:42.375Z,6.90
2019-03-13T00:05:13.535Z,7.00
2019-03-13T00:07:43.783Z,6.50
2019-03-13T00:10:15.102Z,6.80
2019-03-13T00:12:44.855Z,6.70
2019-03-13T00:15:16.526Z,6.50
2019-03-13T00:17:47.199Z,6.30
2019-03-13T00:20:16.768Z,6.40
2019-03-13T00:22:46.413Z,6.50
2019-03-13T00:25:16.088Z,6.70
2019-03-13T00:27:45.642Z,6.30
2019-03-13T00:30:16.681Z,6.30
2019-03-13T00:32:46.335Z,6.90
2019-03-13T00:35:16.183Z,6.70
2019-03-13T00:37:45.807Z,6.70
2019-03-13T00:40:15.730Z,7.00
2019-03-13T00:42:45.743Z,6.50
2019-03-13T00:45:16.427Z,6.30
2019-03-13T00:47:45.971Z,6.50
2019-03-13T00:50:24.338Z,6.90
2019-03-13T00:52:53.895Z,6.90
2019-03-13T00:55:23.803Z,6.90
2019-03-13T00:57:53.588Z,6.80
2019-03-13T01:00:41.552Z,6.80
2019-03-13T01:03:24.783Z,7.00
2019-03-13T01:06:01.232Z,6.70
2019-03-13T01:08:30.889Z,7.10
2019-03-13T01:11:02.368Z,7.10
2019-03-13T01:13:33.879Z,7.40
2019-03-13T01:16:04.955Z,7.20
2019-03-13T01:18:34.734Z,7.40
2019-03-13T01:21:04.453Z,7.10
2019-03-13T01:23:34.227Z,7.80
2019-03-13T01:26:04.516Z,7.70
2019-03-13T01:28:34.803Z,8.00
2019-03-13T01:31:27.683Z,7.10
2019-03-13T01:34:11.941Z,7.50
2019-03-13T01:36:42.819Z,7.00
2019-03-13T01:39:12.423Z,7.70
2019-03-13T01:41:42.118Z,7.50
2019-03-13T01:44:11.863Z,7.60
2019-03-13T01:46:41.683Z,7.50
2019-03-13T01:49:11.603Z,7.30
2019-03-13T01:51:41.727Z,7.20
2019-03-13T01:54:11.271Z,7.30
2019-03-13T01:56:41.463Z,7.00
2019-03-13T01:59:11.175Z,7.10
2019-03-13T02:01:42.144Z,6.90
2019-03-13T02:04:11.903Z,7.40
2019-03-13T02:06:41.548Z,7.10
2019-03-13T02:09:11.474Z,6.90
2019-03-13T02:11:41.127Z,6.20
2019-03-13T02:14:10.762Z,6.50
2019-03-13T02:16:41.501Z,6.20
2019-03-13T02:19:11.155Z,6.50
2019-03-13T02:21:40.879Z,6.60
2019-03-13T02:24:10.466Z,7.00
2019-03-13T02:26:40.348Z,6.40
2019-03-13T02:29:10.039Z,6.40
2019-03-13T02:31:40.719Z,7.00
2019-03-13T02:34:10.411Z,6.70
2019-03-13T02:36:40.033Z,6.90
2019-03-13T02:39:10.767Z,7.30
2019-03-13T02:41:40.430Z,6.70
2019-03-13T02:44:10.081Z,6.50
2019-03-13T02:46:39.958Z,6.30
2019-03-13T02:49:09.763Z,6.30
2019-03-13T02:51:39.455Z,6.50
2019-03-13T02:54:09.191Z,6.90
2019-03-13T02:56:39.272Z,6.60
2019-03-13T02:59:09.443Z,6.50
2019-03-13T03:01:53.387Z,6.60
2019-03-13T03:04:23.282Z,6.20
2019-03-13T03:06:53.592Z,7.00
2019-03-13T03:09:25.191Z,7.00
2019-03-13T03:11:56.056Z,7.10
2019-03-13T03:14:26.677Z,6.40
2019-03-13T03:16:56.281Z,6.20
2019-03-13T03:19:28.152Z,6.40
2019-03-13T03:21:57.683Z,6.40
2019-03-13T03:24:27.392Z,6.30
2019-03-13T03:26:56.924Z,6.50
2019-03-13T03:29:26.778Z,6.50
2019-03-13T03:31:57.533Z,6.60
2019-03-13T03:34:27.160Z,6.40
2019-03-13T03:36:56.873Z,6.20
2019-03-13T03:39:26.527Z,6.30
2019-03-13T03:41:56.130Z,6.60
2019-03-13T03:44:25.863Z,6.20
2019-03-13T03:46:55.627Z,6.30
2019-03-13T03:49:25.422Z,6.20
2019-03-13T03:51:55.212Z,6.30
2019-03-13T03:54:26.333Z,6.10
2019-03-13T03:56:56.012Z,6.00
2019-03-13T03:59:25.909Z,6.60
2019-03-13T04:01:55.747Z,6.70
2019-03-13T04:04:25.354Z,6.40
2019-03-13T04:06:56.765Z,6.60
2019-03-13T04:09:26.376Z,6.70
2019-03-13T04:11:56.040Z,6.90
2019-03-13T04:14:26.148Z,6.80
2019-03-13T04:16:56.526Z,6.80
2019-03-13T04:19:26.376Z,6.70
2019-03-13T04:21:56.141Z,6.80
2019-03-13T04:24:25.791Z,6.50
2019-03-13T04:26:55.544Z,6.70
2019-03-13T04:29:25.426Z,6.50
2019-03-13T04:31:55.227Z,6.50
2019-03-13T04:34:26.024Z,6.60
2019-03-13T04:36:57.751Z,6.60
2019-03-13T04:39:27.472Z,6.80
2019-03-13T04:41:58.680Z,6.50
2019-03-13T04:44:28.384Z,6.30
2019-03-13T04:46:58.079Z,6.40
2019-03-13T04:49:30.468Z,6.50
2019-03-13T04:52:00.057Z,6.90
2019-03-13T04:54:29.744Z,6.70
2019-03-13T04:56:59.435Z,6.60
2019-03-13T04:59:28.999Z,6.60
2019-03-13T05:01:59.632Z,6.90
2019-03-13T05:04:31.784Z,6.60
2019-03-13T05:07:03.939Z,6.80
2019-03-13T05:09:38.308Z,6.90
2019-03-13T05:12:08.040Z,6.90
2019-03-13T05:14:38.028Z,7.00
2019-03-13T05:17:07.909Z,6.90
2019-03-13T05:19:37.439Z,7.20
2019-03-13T05:22:08.574Z,6.80
2019-03-13T05:24:38.302Z,6.90
2019-03-13T05:27:08.171Z,6.90
2019-03-13T05:29:37.866Z,7.00
2019-03-13T05:32:07.665Z,7.00
2019-03-13T05:34:37.378Z,6.80
2019-03-13T05:37:07.239Z,7.20
2019-03-13T05:39:36.979Z,6.90
2019-03-13T05:42:06.703Z,7.00
2019-03-13T05:44:36.773Z,7.00
2019-03-13T05:47:06.568Z,7.10
2019-03-13T05:49:36.343Z,7.00
2019-03-13T05:52:06.165Z,7.20
2019-03-13T05:54:36.586Z,6.70
2019-03-13T05:57:06.281Z,6.90
2019-03-13T05:59:36.055Z,7.20
2019-03-13T06:02:06.808Z,7.10
2019-03-13T06:04:36.696Z,7.00
2019-03-13T06:07:07.352Z,6.80
2019-03-13T06:09:37.560Z,7.10
2019-03-13T06:12:07.179Z,7.10
2019-03-13T06:14:37.353Z,6.90
2019-03-13T06:17:07.371Z,6.90
2019-03-13T06:19:38.170Z,6.80
2019-03-13T06:22:07.868Z,6.90
2019-03-13T06:24:37.651Z,6.80
2019-03-13T06:27:07.395Z,6.80
2019-03-13T06:29:37.015Z,6.90
2019-03-13T06:32:06.561Z,6.90
2019-03-13T06:34:37.266Z,7.30
2019-03-13T06:37:06.838Z,7.20
2019-03-13T06:39:37.635Z,6.90
2019-03-13T06:42:07.374Z,6.90
2019-03-13T06:44:37.173Z,7.10
2019-03-13T06:47:06.759Z,7.00
2019-03-13T06:49:37.543Z,7.10
2019-03-13T06:52:07.095Z,6.90
2019-03-13T06:54:36.823Z,6.70
2019-03-13T06:57:06.442Z,6.90
2019-03-13T06:59:55.274Z,7.00
2019-03-13T07:02:43.797Z,7.00
2019-03-13T07:05:32.422Z,7.10
2019-03-13T07:08:41.172Z,6.80
2019-03-13T07:11:47.911Z,6.90
2019-03-13T07:14:36.471Z,7.10
2019-03-13T07:17:25.983Z,7.10
2019-03-13T07:20:13.743Z,7.40
2019-03-13T07:23:03.307Z,7.00
2019-03-13T07:25:51.943Z,7.10
2019-03-13T07:28:37.458Z,7.20
2019-03-13T07:31:25.956Z,7.20
2019-03-13T07:34:13.180Z,7.00
2019-03-13T07:36:52.528Z,6.60
2019-03-13T07:39:32.039Z,6.60
2019-03-13T07:42:29.595Z,6.50
2019-03-13T07:45:33.437Z,6.60
2019-03-13T07:48:21.402Z,6.90
2019-03-13T07:51:16.148Z,6.90
2019-03-13T07:54:16.998Z,6.60
2019-03-13T07:57:06.791Z,6.80
2019-03-13T07:59:55.403Z,6.70
2019-03-13T08:02:42.813Z,6.80
2019-03-13T08:05:21.272Z,7.10
2019-03-13T08:08:10.991Z,7.00
2019-03-13T08:10:53.382Z,7.00
2019-03-13T08:13:34.071Z,7.20
2019-03-13T08:16:29.942Z,7.10
2019-03-13T08:19:30.990Z,7.00
2019-03-13T08:22:25.264Z,7.10
2019-03-13T08:25:08.077Z,7.40
2019-03-13T08:28:05.430Z,7.30
2019-03-13T08:30:58.219Z,7.30
2019-03-13T08:33:49.651Z,7.10
2019-03-13T08:36:40.759Z,7.10
2019-03-13T08:39:22.643Z,6.90
2019-03-13T08:42:20.487Z,7.10
2019-03-13T08:45:11.843Z,7.10
2019-03-13T08:48:03.514Z,7.10
2019-03-13T08:50:52.056Z,6.90
2019-03-13T08:53:47.882Z,7.10
2019-03-13T08:56:36.371Z,7.30
2019-03-13T08:59:24.935Z,7.40
2019-03-13T09:02:02.314Z,7.40
2019-03-13T09:05:01.112Z,7.70
2019-03-13T09:07:58.484Z,7.40
2019-03-13T09:10:47.112Z,7.30
2019-03-13T09:13:24.516Z,7.20
2019-03-13T09:16:10.818Z,7.10
2019-03-13T09:18:59.484Z,6.80
2019-03-13T09:21:38.133Z,6.60
2019-03-13T09:24:35.795Z,6.70
2019-03-13T09:27:23.400Z,6.90
2019-03-13T09:30:24.726Z,6.70
2019-03-13T09:33:16.231Z,6.80
2019-03-13T09:36:10.800Z,6.50
2019-03-13T09:38:59.557Z,6.60
2019-03-13T09:42:03.170Z,6.40
2019-03-13T09:45:02.473Z,6.50
2019-03-13T09:47:44.562Z,6.50
2019-03-13T09:50:31.975Z,6.70
2019-03-13T09:53:23.611Z,6.90
2019-03-13T09:56:10.926Z,6.80
2019-03-13T09:59:05.573Z,7.00
2019-03-13T10:02:06.452Z,7.20
2019-03-13T10:05:00.987Z,7.10
2019-03-13T10:07:48.486Z,7.10
2019-03-13T10:10:36.979Z,7.10
2019-03-13T10:13:24.183Z,7.10
2019-03-13T10:16:15.611Z,7.20
2019-03-13T10:19:04.276Z,7.40
2019-03-13T10:21:49.720Z,7.30
2019-03-13T10:24:44.459Z,7.30
2019-03-13T10:27:42.279Z,7.40
2019-03-13T10:30:22.760Z,7.30
2019-03-13T10:33:12.557Z,7.40
2019-03-13T10:36:13.851Z,7.80
2019-03-13T10:39:01.723Z,7.50
2019-03-13T10:41:37.470Z,7.30
2019-03-13T10:44:17.087Z,7.40
2019-03-13T10:47:01.983Z,7.30
2019-03-13T10:49:50.687Z,7.40
2019-03-13T10:52:48.887Z,7.40
2019-03-13T10:55:37.480Z,7.50
2019-03-13T10:58:14.106Z,7.70
2019-03-13T11:01:02.716Z,7.60
2019-03-13T11:03:52.395Z,7.90
2019-03-13T11:06:39.738Z,7.90
2019-03-13T11:09:20.723Z,7.90
2019-03-13T11:12:09.250Z,7.90
2019-03-13T11:14:57.436Z,7.90
2019-03-13T11:18:02.947Z,7.90
2019-03-13T11:20:50.093Z,8.20
2019-03-13T11:23:54.247Z,8.10
2019-03-13T11:26:47.160Z,8.00
2019-03-13T11:29:39.426Z,8.10
2019-03-13T11:32:31.146Z,7.80
2019-03-13T11:35:18.603Z,7.70
2019-03-13T11:37:54.169Z,7.90
2019-03-13T11:40:45.385Z,8.00
2019-03-13T11:43:41.351Z,8.00
2019-03-13T11:46:30.179Z,8.20
2019-03-13T11:49:25.637Z,8.30
2019-03-13T11:52:31.477Z,8.50
2019-03-13T11:55:18.040Z,8.20
2019-03-13T11:58:09.319Z,8.10
2019-03-13T12:01:10.343Z,8.20
2019-03-13T12:03:57.587Z,8.10
2019-03-13T12:06:55.483Z,8.10
2019-03-13T12:09:34.746Z,8.10
2019-03-13T12:12:15.739Z,8.10
2019-03-13T12:15:07.199Z,8.10
2019-03-13T12:17:56.083Z,7.80
2019-03-13T12:20:47.294Z,7.70
2019-03-13T12:23:36.095Z,7.80
2019-03-13T12:26:12.167Z,7.50
2019-03-13T12:29:13.007Z,7.70
2019-03-13T12:31:49.540Z,7.60
2019-03-13T12:34:35.159Z,7.70
2019-03-13T12:37:33.891Z,7.40
2019-03-13T12:40:28.705Z,7.30
2019-03-13T12:43:17.395Z,7.40
2019-03-13T12:46:05.854Z,7.30
2019-03-13T12:49:03.795Z,7.30
2019-03-13T12:51:47.408Z,7.40
2019-03-13T12:54:36.158Z,7.30
2019-03-13T12:57:19.640Z,7.60
2019-03-13T13:00:05.715Z,7.30
2019-03-13T13:02:55.278Z,7.40
2019-03-13T13:05:43.328Z,7.40
2019-03-13T13:08:28.258Z,7.50
2019-03-13T13:11:15.683Z,7.30
2019-03-13T13:14:04.467Z,7.30
2019-03-13T13:16:58.887Z,7.60
2019-03-13T13:19:28.522Z,7.80
2019-03-13T13:22:00.026Z,7.80
2019-03-13T13:24:29.799Z,7.50
2019-03-13T13:27:00.606Z,7.50
2019-03-13T13:29:30.400Z,7.50
2019-03-13T13:32:00.177Z,7.40
2019-03-13T13:34:30.134Z,7.50
2019-03-13T13:37:00.140Z,7.40
2019-03-13T13:39:31.715Z,7.30
2019-03-13T13:42:04.262Z,7.40
2019-03-13T13:44:35.064Z,7.50
2019-03-13T13:47:04.756Z,7.40
2019-03-13T13:49:34.481Z,7.70
2019-03-13T13:52:05.409Z,7.60
2019-03-13T13:54:35.012Z,7.40
2019-03-13T13:57:08.408Z,7.30
2019-03-13T13:59:38.412Z,7.50
2019-03-13T14:02:09.285Z,7.40
2019-03-13T14:04:38.859Z,7.40
2019-03-13T14:07:08.545Z,7.60
2019-03-13T14:09:38.638Z,7.50
2019-03-13T14:12:08.241Z,7.50
2019-03-13T14:14:37.891Z,7.60
2019-03-13T14:17:07.456Z,7.90
2019-03-13T14:19:37.204Z,7.50
2019-03-13T14:22:06.782Z,7.50
2019-03-13T14:24:36.673Z,7.60
2019-03-13T14:27:14.474Z,7.70
2019-03-13T14:29:37.438Z,7.70
2019-03-13T14:32:09.077Z,7.70
2019-03-13T14:34:38.633Z,7.90
2019-03-13T14:37:08.423Z,8.20
2019-03-13T14:39:39.512Z,8.00
2019-03-13T14:42:09.240Z,7.90
2019-03-13T14:44:39.045Z,7.90
2019-03-13T14:47:08.752Z,7.80
2019-03-13T14:49:40.177Z,7.60
2019-03-13T14:52:09.779Z,7.40
2019-03-13T14:54:41.237Z,7.30
2019-03-13T14:57:10.955Z,7.30
2019-03-13T14:59:40.877Z,7.70
2019-03-13T15:02:10.751Z,7.90
2019-03-13T15:04:40.463Z,7.50
2019-03-13T15:07:11.236Z,7.50
2019-03-13T15:09:40.924Z,7.60
2019-03-13T15:12:10.700Z,7.80
2019-03-13T15:14:41.298Z,7.80
2019-03-13T15:17:11.112Z,7.50
2019-03-13T15:19:42.560Z,7.60
2019-03-13T15:22:12.271Z,7.50
2019-03-13T15:24:42.083Z,7.40
2019-03-13T15:27:11.786Z,7.30
2019-03-13T15:29:41.621Z,7.30
2019-03-13T15:32:11.339Z,7.40
2019-03-13T15:34:42.955Z,7.70
2019-03-13T15:37:12.787Z,8.20
2019-03-13T15:39:42.558Z,7.80
2019-03-13T15:42:12.119Z,7.40
2019-03-13T15:44:42.547Z,7.30
2019-03-13T15:47:12.172Z,7.30
2019-03-13T15:49:43.292Z,8.00
2019-03-13T15:52:13.502Z,7.90
2019-03-13T15:54:43.287Z,7.90
2019-03-13T15:57:12.940Z,7.40
2019-03-13T15:59:43.675Z,7.10
2019-03-13T16:02:14.706Z,7.70
2019-03-13T16:04:45.598Z,7.50
2019-03-13T16:07:16.811Z,7.40
2019-03-13T16:09:47.674Z,7.30
2019-03-13T16:12:17.876Z,7.20
2019-03-13T16:14:47.508Z,7.40
2019-03-13T16:17:17.159Z,7.30
2019-03-13T16:19:47.142Z,7.30
2019-03-13T16:22:17.911Z,7.20
2019-03-13T16:24:48.602Z,7.10
2019-03-13T16:27:19.152Z,7.00
2019-03-13T16:29:48.883Z,7.40
2019-03-13T16:32:19.966Z,7.10
2019-03-13T16:34:49.543Z,6.90
2019-03-13T16:37:20.452Z,6.70
2019-03-13T16:39:50.005Z,6.90
2019-03-13T16:42:19.839Z,7.20
2019-03-13T16:44:49.565Z,7.50
2019-03-13T16:47:19.318Z,7.70
2019-03-13T16:49:50.719Z,8.10
2019-03-13T16:52:20.347Z,8.40
2019-03-13T16:54:49.929Z,8.30
2019-03-13T16:57:19.768Z,8.00
2019-03-13T17:00:00.000Z,7.90
2019-03-13T17:02:20.803Z,7.50
2019-03-13T17:04:50.934Z,7.30
2019-03-13T17:07:20.580Z,7.10
2019-03-13T17:09:50.501Z,7.00
2019-03-13T17:12:20.295Z,7.50
2019-03-13T17:14:50.031Z,7.40
2019-03-13T17:17:19.602Z,7.20
2019-03-13T17:19:49.312Z,7.30
2019-03-13T17:22:19.032Z,7.90
2019-03-13T17:24:48.560Z,7.60
2019-03-13T17:27:19.734Z,7.70
2019-03-13T17:29:51.035Z,7.80
2019-03-13T17:32:22.629Z,7.30
2019-03-13T17:34:53.647Z,7.70
2019-03-13T17:37:24.063Z,7.80
2019-03-13T17:39:53.894Z,7.40
2019-03-13T17:42:25.460Z,7.60
2019-03-13T17:44:55.142Z,7.70
2019-03-13T17:47:26.188Z,7.40
2019-03-13T17:49:57.095Z,7.10
2019-03-13T17:52:27.813Z,7.30
2019-03-13T17:54:57.448Z,7.40
2019-03-13T17:57:27.059Z,7.80
2019-03-13T17:59:56.729Z,7.60
2019-03-13T18:02:26.309Z,7.80
2019-03-13T18:04:55.959Z,7.70
2019-03-13T18:07:25.731Z,7.90
2019-03-13T18:09:55.649Z,8.10
2019-03-13T18:12:25.582Z,8.20
2019-03-13T18:14:55.648Z,8.30
2019-03-13T18:17:29.024Z,8.00
2019-03-13T18:19:59.671Z,8.00
2019-03-13T18:22:29.497Z,7.60
2019-03-13T18:24:59.547Z,8.20
2019-03-13T18:27:30.831Z,8.30
2019-03-13T18:30:00.540Z,7.80
2019-03-13T18:32:41.400Z,7.70
2019-03-13T18:35:02.993Z,7.50
2019-03-13T18:37:32.747Z,8.40
2019-03-13T18:40:02.616Z,7.80
2019-03-13T18:42:32.260Z,7.80
2019-03-13T18:45:01.860Z,7.30
2019-03-13T18:47:33.000Z,7.10
2019-03-13T18:50:02.739Z,6.90
2019-03-13T18:52:32.403Z,7.00
2019-03-13T18:55:02.675Z,7.30
2019-03-13T18:57:32.973Z,7.30
2019-03-13T19:00:03.088Z,7.40
2019-03-13T19:02:32.663Z,7.60
2019-03-13T19:05:03.724Z,7.70
2019-03-13T19:07:33.464Z,7.70
2019-03-13T19:10:04.316Z,7.50
2019-03-13T19:12:34.154Z,7.30
2019-03-13T19:15:04.151Z,7.60
2019-03-13T19:17:34.853Z,7.40
2019-03-13T19:20:04.940Z,7.30
2019-03-13T19:22:34.508Z,7.00
2019-03-13T19:25:04.527Z,7.20
2019-03-13T19:27:34.572Z,7.40
2019-03-13T19:30:04.661Z,7.60
2019-03-13T19:32:34.292Z,7.40
2019-03-13T19:35:05.541Z,7.30
2019-03-13T19:37:35.155Z,7.30
2019-03-13T19:40:06.973Z,7.40
2019-03-13T19:42:37.205Z,7.30
2019-03-13T19:45:10.091Z,7.20
2019-03-13T19:47:40.311Z,7.10
2019-03-13T19:50:10.408Z,7.50
2019-03-13T19:52:40.188Z,7.30
2019-03-13T19:55:11.195Z,7.70
2019-03-13T19:57:42.835Z,7.40
2019-03-13T20:00:14.872Z,7.10
2019-03-13T20:02:44.420Z,7.20
2019-03-13T20:05:14.512Z,7.60
2019-03-13T20:07:44.108Z,7.30
2019-03-13T20:10:18.623Z,7.40
2019-03-13T20:12:48.711Z,7.30
2019-03-13T20:15:19.739Z,7.40
2019-03-13T20:17:50.588Z,7.40
2019-03-13T20:20:21.154Z,7.70
2019-03-13T20:22:52.565Z,7.30
2019-03-13T20:25:23.723Z,7.70
2019-03-13T20:27:54.809Z,7.80
2019-03-13T20:30:26.380Z,7.50
2019-03-13T20:32:55.984Z,7.40
2019-03-13T20:35:25.661Z,7.70
2019-03-13T20:37:55.517Z,7.40
2019-03-13T20:40:25.666Z,7.10
2019-03-13T20:42:55.357Z,7.00
2019-03-13T20:45:25.491Z,7.00
2019-03-13T20:47:55.531Z,6.90
2019-03-13T20:50:36.519Z,7.10
2019-03-13T20:52:59.285Z,7.10
2019-03-13T20:55:29.095Z,7.10
2019-03-13T20:57:59.318Z,7.20
2019-03-13T21:00:29.386Z,7.40
2019-03-13T21:03:00.695Z,7.60
2019-03-13T21:05:31.930Z,7.90
2019-03-13T21:08:01.730Z,8.00
2019-03-13T21:10:34.335Z,7.30
2019-03-13T21:13:04.269Z,7.10
2019-03-13T21:15:34.316Z,6.80
2019-03-13T21:18:03.936Z,7.40
2019-03-13T21:20:33.658Z,7.30
2019-03-13T21:23:03.328Z,7.00
2019-03-13T21:25:32.935Z,7.70
2019-03-13T21:28:02.508Z,7.60
2019-03-13T21:30:33.716Z,7.00
2019-03-13T21:33:03.576Z,6.90
2019-03-13T21:35:33.184Z,7.00
2019-03-13T21:38:03.024Z,7.00
2019-03-13T21:40:32.747Z,7.30
2019-03-13T21:43:03.819Z,7.30
2019-03-13T21:45:40.996Z,7.40
2019-03-13T21:48:06.021Z,7.30
2019-03-13T21:50:35.610Z,7.30
2019-03-13T21:53:05.383Z,7.20
2019-03-13T21:55:35.429Z,7.00
2019-03-13T21:58:05.719Z,6.90
2019-03-13T22:00:35.285Z,7.20
2019-03-13T22:03:06.204Z,7.10
2019-03-13T22:05:35.750Z,7.00
2019-03-13T22:08:05.497Z,6.90
2019-03-13T22:10:35.091Z,7.10
2019-03-13T22:13:05.805Z,7.40
2019-03-13T22:15:35.379Z,7.30
2019-03-13T22:18:05.028Z,7.20
2019-03-13T22:20:34.964Z,7.30
2019-03-13T22:23:06.306Z,6.90
2019-03-13T22:25:35.934Z,7.60
2019-03-13T22:28:07.019Z,7.60
2019-03-13T22:30:38.425Z,7.60
2019-03-13T22:33:08.078Z,7.50
2019-03-13T22:35:39.158Z,7.40
2019-03-13T22:38:08.732Z,7.20
2019-03-13T22:40:40.264Z,7.40
2019-03-13T22:43:09.820Z,7.10
2019-03-13T22:45:40.641Z,7.10
2019-03-13T22:48:11.996Z,7.20
2019-03-13T22:50:43.413Z,7.10
2019-03-13T22:53:13.106Z,7.20
2019-03-13T22:55:44.200Z,7.10
2019-03-13T22:58:13.775Z,7.20
2019-03-13T23:00:59.926Z,6.90
2019-03-13T23:03:31.910Z,7.00
2019-03-13T23:06:01.948Z,6.60
2019-03-13T23:08:31.648Z,6.80
2019-03-13T23:11:02.623Z,7.00
2019-03-13T23:13:32.143Z,6.90
2019-03-13T23:16:01.852Z,6.90
2019-03-13T23:18:31.387Z,6.90
2019-03-13T23:21:01.011Z,6.80
2019-03-13T23:23:30.584Z,6.70
2019-03-13T23:26:00.512Z,6.70
2019-03-13T23:28:30.097Z,6.60
2019-03-13T23:30:59.989Z,6.80
2019-03-13T23:33:31.426Z,7.20
2019-03-13T23:36:01.007Z,7.60
2019-03-13T23:38:30.767Z,7.60
2019-03-13T23:41:01.800Z,7.70
2019-03-13T23:43:31.861Z,7.50
2019-03-13T23:46:02.469Z,7.00
2019-03-13T23:48:32.656Z,7.40
2019-03-13T23:51:02.846Z,7.60
2019-03-13T23:53:33.891Z,7.10
2019-03-13T23:56:03.647Z,7.20
2019-03-13T23:58:33.423Z,7.50
